createdAt,value
2018-12-05T00:00:24.801Z,-5.16
2018-12-05T00:02:53.701Z,-5.08
2018-12-05T00:05:22.592Z,-5.03
2018-12-05T00:07:51.505Z,-5.03
2018-12-05T00:10:20.465Z,-5.04
2018-12-05T00:12:49.361Z,-5.04
2018-12-05T00:15:18.265Z,-5.05
2018-12-05T00:17:47.172Z,-5.05
2018-12-05T00:20:16.067Z,-5.07
2018-12-05T00:22:44.957Z,-5.06
2018-12-05T00:25:13.902Z,-5.11
2018-12-05T00:27:42.804Z,-5.14
2018-12-05T00:30:11.692Z,-5.16
2018-12-05T00:32:40.591Z,-5.14
2018-12-05T00:35:09.498Z,-5.21
2018-12-05T00:37:38.409Z,-5.23
2018-12-05T00:40:07.471Z,-5.25
2018-12-05T00:42:36.473Z,-5.28
2018-12-05T00:45:06.002Z,-5.33
2018-12-05T00:47:34.901Z,-5.37
2018-12-05T00:50:04.073Z,-5.37
2018-12-05T00:52:32.985Z,-5.42
2018-12-05T00:55:01.881Z,-5.45
2018-12-05T00:57:30.803Z,-5.51
2018-12-05T00:59:59.737Z,-5.52
2018-12-05T01:02:28.639Z,-5.57
2018-12-05T01:04:57.533Z,-5.56
2018-12-05T01:07:26.482Z,-5.57
2018-12-05T01:09:55.382Z,-5.56
2018-12-05T01:12:24.281Z,-5.56
2018-12-05T01:14:53.194Z,-5.56
2018-12-05T01:17:22.089Z,-5.58
2018-12-05T01:19:51.102Z,-5.58
2018-12-05T01:22:20.009Z,-5.57
2018-12-05T01:24:48.913Z,-5.55
2018-12-05T01:27:17.817Z,-5.50
2018-12-05T01:29:46.744Z,-5.49
2018-12-05T01:32:15.634Z,-5.48
2018-12-05T01:34:44.581Z,-5.47
2018-12-05T01:37:13.472Z,-5.49
2018-12-05T01:39:42.380Z,-5.49
2018-12-05T01:42:11.301Z,-5.51
2018-12-05T01:44:40.206Z,-5.56
2018-12-05T01:47:09.153Z,-5.62
2018-12-05T01:49:38.065Z,-5.63
2018-12-05T01:52:06.973Z,-5.64
2018-12-05T01:54:35.901Z,-5.66
2018-12-05T01:57:04.804Z,-5.74
2018-12-05T01:59:33.696Z,-5.82
2018-12-05T02:02:02.700Z,-5.75
2018-12-05T02:04:31.598Z,-5.71
2018-12-05T02:07:00.516Z,-5.70
2018-12-05T02:09:29.413Z,-5.67
2018-12-05T02:11:58.321Z,-5.65
2018-12-05T02:14:27.236Z,-5.69
2018-12-05T02:16:56.140Z,-5.67
2018-12-05T02:19:25.083Z,-5.68
2018-12-05T02:21:53.988Z,-5.69
2018-12-05T02:24:22.894Z,-5.73
2018-12-05T02:26:51.784Z,-5.75
2018-12-05T02:29:20.689Z,-5.79
2018-12-05T02:31:49.597Z,-5.76
2018-12-05T02:34:18.493Z,-5.80
2018-12-05T02:36:47.392Z,-5.81
2018-12-05T02:39:16.308Z,-5.84
2018-12-05T02:41:45.213Z,-5.84
2018-12-05T02:44:14.106Z,-5.84
2018-12-05T02:46:43.011Z,-5.85
2018-12-05T02:49:11.900Z,-5.85
2018-12-05T02:51:40.813Z,-5.85
2018-12-05T02:54:09.732Z,-5.85
2018-12-05T02:56:38.632Z,-5.86
2018-12-05T02:59:07.549Z,-5.84
2018-12-05T03:01:36.450Z,-5.86
2018-12-05T03:04:05.391Z,-5.86
2018-12-05T03:06:34.293Z,-5.88
2018-12-05T03:09:04.455Z,-5.90
2018-12-05T03:11:33.350Z,-5.88
2018-12-05T03:14:02.330Z,-5.88
2018-12-05T03:16:31.232Z,-5.87
2018-12-05T03:19:00.214Z,-5.87
2018-12-05T03:21:29.209Z,-5.85
2018-12-05T03:23:58.106Z,-5.96
2018-12-05T03:26:27.006Z,-5.89
2018-12-05T03:28:55.901Z,-5.83
2018-12-05T03:31:24.802Z,-5.80
2018-12-05T03:33:53.698Z,-5.79
2018-12-05T03:36:22.612Z,-5.78
2018-12-05T03:38:51.517Z,-5.75
2018-12-05T03:41:20.481Z,-5.76
2018-12-05T03:43:49.372Z,-5.76
2018-12-05T03:46:18.286Z,-5.81
2018-12-05T03:48:47.245Z,-5.85
2018-12-05T03:51:16.163Z,-5.84
2018-12-05T03:53:45.073Z,-5.83
2018-12-05T03:56:13.984Z,-5.89
2018-12-05T03:58:42.887Z,-5.92
2018-12-05T04:01:11.799Z,-5.94
2018-12-05T04:03:40.698Z,-5.94
2018-12-05T04:06:09.607Z,-5.92
2018-12-05T04:08:38.521Z,-5.91
2018-12-05T04:11:07.465Z,-5.88
2018-12-05T04:13:36.361Z,-5.79
2018-12-05T04:16:05.264Z,-5.64
2018-12-05T04:18:34.164Z,-5.45
2018-12-05T04:21:03.061Z,-5.26
2018-12-05T04:23:31.972Z,-5.06
2018-12-05T04:26:00.872Z,-4.89
2018-12-05T04:28:29.786Z,-4.76
2018-12-05T04:30:58.689Z,-4.60
2018-12-05T04:33:27.665Z,-4.50
2018-12-05T04:35:56.569Z,-4.40
2018-12-05T04:38:25.476Z,-4.25
2018-12-05T04:40:54.364Z,-4.14
2018-12-05T04:43:23.339Z,-4.08
2018-12-05T04:45:52.228Z,-4.00
2018-12-05T04:48:21.124Z,-3.96
2018-12-05T04:50:50.050Z,-3.96
2018-12-05T04:53:18.953Z,-3.97
2018-12-05T04:55:47.887Z,-4.02
2018-12-05T04:58:16.805Z,-4.02
2018-12-05T05:00:45.726Z,-4.08
2018-12-05T05:03:14.619Z,-3.96
2018-12-05T05:05:43.505Z,-3.88
2018-12-05T05:08:12.418Z,-3.73
2018-12-05T05:10:41.317Z,-3.61
2018-12-05T05:13:10.217Z,-3.47
2018-12-05T05:15:39.183Z,-3.37
2018-12-05T05:18:08.074Z,-3.35
2018-12-05T05:20:36.966Z,-3.30
2018-12-05T05:23:05.878Z,-3.27
2018-12-05T05:25:34.756Z,-3.18
2018-12-05T05:28:03.653Z,-3.09
2018-12-05T05:30:32.549Z,-3.00
2018-12-05T05:33:01.464Z,-2.92
2018-12-05T05:35:30.366Z,-2.83
2018-12-05T05:37:59.306Z,-2.73
2018-12-05T05:40:28.196Z,-2.62
2018-12-05T05:42:57.129Z,-2.59
2018-12-05T05:45:26.029Z,-2.58
2018-12-05T05:47:54.945Z,-2.69
2018-12-05T05:50:23.858Z,-2.65
2018-12-05T05:52:52.771Z,-2.59
2018-12-05T05:55:21.669Z,-2.47
2018-12-05T05:57:50.641Z,-2.46
2018-12-05T06:00:19.534Z,-2.36
2018-12-05T06:02:48.486Z,-2.34
2018-12-05T06:05:17.376Z,-2.23
2018-12-05T06:07:46.281Z,-2.20
2018-12-05T06:10:15.181Z,-2.15
2018-12-05T06:12:44.086Z,-2.04
2018-12-05T06:15:12.980Z,-1.87
2018-12-05T06:17:41.874Z,-1.72
2018-12-05T06:20:10.819Z,-1.56
2018-12-05T06:22:39.729Z,-1.52
2018-12-05T06:25:08.647Z,-1.43
2018-12-05T06:27:37.525Z,-1.34
2018-12-05T06:30:07.244Z,-1.19
2018-12-05T06:32:36.136Z,-1.23
2018-12-05T06:35:05.125Z,-1.15
2018-12-05T06:37:34.168Z,-1.14
2018-12-05T06:40:03.087Z,-1.10
2018-12-05T06:42:31.989Z,-1.02
2018-12-05T06:45:00.901Z,-0.92
2018-12-05T06:47:29.858Z,-0.91
2018-12-05T06:49:58.824Z,-0.80
2018-12-05T06:52:27.720Z,-0.65
2018-12-05T06:54:56.613Z,-0.56
2018-12-05T06:57:25.507Z,-0.47
2018-12-05T06:59:54.404Z,-0.40
2018-12-05T07:02:23.317Z,-0.36
2018-12-05T07:04:52.222Z,-0.24
2018-12-05T07:07:21.149Z,-0.10
2018-12-05T07:09:50.059Z,-0.02
2018-12-05T07:12:18.956Z,0.13
2018-12-05T07:14:47.840Z,0.20
2018-12-05T07:17:16.725Z,0.33
2018-12-05T07:19:45.608Z,0.38
2018-12-05T07:22:14.533Z,0.47
2018-12-05T07:24:43.420Z,0.50
2018-12-05T07:27:12.300Z,0.42
2018-12-05T07:29:41.316Z,0.48
2018-12-05T07:32:10.196Z,0.51
2018-12-05T07:34:39.089Z,0.56
2018-12-05T07:37:07.978Z,0.72
2018-12-05T07:39:36.886Z,0.86
2018-12-05T07:42:05.769Z,0.94
2018-12-05T07:44:34.658Z,1.01
2018-12-05T07:47:03.543Z,1.10
2018-12-05T07:49:32.425Z,1.19
2018-12-05T07:52:01.321Z,1.23
2018-12-05T07:54:30.216Z,1.25
2018-12-05T07:56:59.243Z,1.23
2018-12-05T07:59:28.132Z,1.27
2018-12-05T08:01:57.042Z,1.30
2018-12-05T08:04:26.052Z,1.37
2018-12-05T08:06:54.949Z,1.42
2018-12-05T08:09:23.853Z,1.42
2018-12-05T08:11:52.993Z,1.32
2018-12-05T08:14:21.935Z,1.24
2018-12-05T08:16:50.891Z,1.18
2018-12-05T08:19:19.853Z,1.17
2018-12-05T08:21:48.762Z,1.19
2018-12-05T08:24:17.808Z,1.20
2018-12-05T08:26:46.702Z,1.19
2018-12-05T08:29:15.630Z,1.13
2018-12-05T08:31:44.647Z,1.23
2018-12-05T08:34:13.548Z,1.30
2018-12-05T08:36:42.467Z,1.26
2018-12-05T08:39:11.370Z,1.39
2018-12-05T08:41:40.273Z,1.41
2018-12-05T08:44:09.178Z,1.48
2018-12-05T08:46:38.177Z,1.54
2018-12-05T08:49:07.108Z,1.64
2018-12-05T08:51:36.018Z,1.63
2018-12-05T08:54:04.903Z,1.74
2018-12-05T08:56:33.843Z,1.65
2018-12-05T08:59:02.750Z,1.61
2018-12-05T09:01:31.696Z,1.56
2018-12-05T09:04:00.768Z,1.51
2018-12-05T09:06:29.753Z,1.29
2018-12-05T09:08:58.714Z,1.31
2018-12-05T09:11:27.680Z,1.17
2018-12-05T09:13:56.624Z,1.06
2018-12-05T09:16:25.530Z,1.02
2018-12-05T09:18:54.473Z,0.99
2018-12-05T09:21:23.364Z,0.95
2018-12-05T09:23:52.269Z,0.91
2018-12-05T09:26:21.213Z,0.82
2018-12-05T09:28:57.029Z,0.80
2018-12-05T09:31:21.074Z,0.79
2018-12-05T09:33:50.025Z,0.85
2018-12-05T09:36:18.937Z,0.97
2018-12-05T09:38:47.853Z,1.03
2018-12-05T09:41:16.744Z,0.99
2018-12-05T09:43:45.739Z,1.04
2018-12-05T09:46:14.637Z,1.09
2018-12-05T09:48:43.540Z,1.09
2018-12-05T09:51:12.443Z,1.20
2018-12-05T09:53:41.349Z,1.28
2018-12-05T09:56:10.247Z,1.40
2018-12-05T09:58:39.157Z,1.46
2018-12-05T10:01:08.054Z,1.43
2018-12-05T10:03:36.970Z,1.38
2018-12-05T10:06:05.873Z,1.42
2018-12-05T10:08:34.889Z,1.37
2018-12-05T10:11:03.805Z,1.43
2018-12-05T10:13:32.757Z,1.37
2018-12-05T10:16:04.441Z,1.02
2018-12-05T10:18:33.393Z,1.33
2018-12-05T10:21:02.299Z,1.29
2018-12-05T10:23:31.209Z,1.28
2018-12-05T10:26:00.117Z,1.42
2018-12-05T10:28:29.022Z,1.49
2018-12-05T10:30:57.926Z,1.59
2018-12-05T10:33:26.829Z,1.71
2018-12-05T10:35:55.736Z,1.80
2018-12-05T10:38:24.653Z,1.94
2018-12-05T10:40:53.562Z,2.06
2018-12-05T10:43:22.516Z,2.12
2018-12-05T10:45:51.500Z,2.24
2018-12-05T10:48:20.424Z,2.28
2018-12-05T10:50:49.409Z,2.39
2018-12-05T10:53:18.338Z,2.48
2018-12-05T10:55:47.257Z,2.56
2018-12-05T10:58:16.201Z,2.68
2018-12-05T11:00:50.057Z,2.78
2018-12-05T11:03:24.054Z,2.83
2018-12-05T11:05:58.048Z,2.76
2018-12-05T11:08:31.994Z,2.77
2018-12-05T11:11:05.876Z,2.78
2018-12-05T11:13:39.857Z,2.67
2018-12-05T11:16:12.833Z,2.62
2018-12-05T11:18:47.209Z,2.65
2018-12-05T11:21:21.203Z,2.54
2018-12-05T11:23:58.066Z,2.56
2018-12-05T11:26:30.662Z,2.56
2018-12-05T11:28:59.620Z,2.27
2018-12-05T11:31:28.529Z,2.26
2018-12-05T11:33:57.460Z,2.36
2018-12-05T11:36:26.412Z,2.34
2018-12-05T11:38:55.334Z,2.30
2018-12-05T11:41:24.230Z,2.26
2018-12-05T11:43:53.211Z,2.36
2018-12-05T11:46:22.101Z,2.32
2018-12-05T11:48:50.999Z,2.45
2018-12-05T11:51:19.909Z,2.64
2018-12-05T11:53:48.804Z,2.77
2018-12-05T11:56:17.774Z,2.91
2018-12-05T11:58:46.686Z,2.99
2018-12-05T12:01:15.606Z,3.05
2018-12-05T12:03:44.513Z,3.07
2018-12-05T12:06:13.430Z,3.06
2018-12-05T12:08:42.358Z,3.08
2018-12-05T12:11:11.366Z,3.08
2018-12-05T12:13:40.284Z,3.06
2018-12-05T12:16:09.201Z,3.06
2018-12-05T12:18:38.116Z,3.03
2018-12-05T12:21:07.094Z,3.04
2018-12-05T12:23:36.006Z,3.03
2018-12-05T12:26:04.985Z,3.04
2018-12-05T12:28:33.886Z,3.07
2018-12-05T12:31:02.819Z,3.07
2018-12-05T12:33:31.748Z,3.07
2018-12-05T12:36:00.668Z,3.11
2018-12-05T12:38:29.591Z,3.16
2018-12-05T12:40:58.498Z,3.07
2018-12-05T12:43:27.433Z,3.15
2018-12-05T12:45:56.350Z,3.35
2018-12-05T12:48:25.284Z,3.50
2018-12-05T12:50:54.190Z,3.53
2018-12-05T12:53:23.124Z,3.55
2018-12-05T12:55:52.035Z,3.55
2018-12-05T12:58:20.968Z,3.49
2018-12-05T13:00:49.887Z,3.48
2018-12-05T13:03:18.825Z,3.41
2018-12-05T13:05:47.742Z,3.39
2018-12-05T13:08:16.694Z,3.34
2018-12-05T13:10:45.598Z,3.35
2018-12-05T13:13:14.525Z,3.34
2018-12-05T13:15:43.446Z,3.40
2018-12-05T13:18:12.362Z,3.39
2018-12-05T13:20:41.300Z,3.39
2018-12-05T13:23:10.206Z,3.38
2018-12-05T13:25:39.145Z,3.27
2018-12-05T13:28:08.070Z,3.31
2018-12-05T13:30:36.985Z,3.31
2018-12-05T13:33:05.898Z,3.31
2018-12-05T13:35:34.840Z,3.29
2018-12-05T13:38:03.948Z,3.28
2018-12-05T13:40:32.910Z,3.28
2018-12-05T13:43:01.835Z,3.32
2018-12-05T13:45:30.753Z,3.24
2018-12-05T13:47:59.673Z,3.22
2018-12-05T13:50:59.576Z,3.23
2018-12-05T13:53:28.487Z,3.22
2018-12-05T13:55:57.418Z,3.22
2018-12-05T13:58:26.349Z,3.18
2018-12-05T14:00:55.260Z,3.15
2018-12-05T14:03:24.186Z,3.11
2018-12-05T14:05:53.097Z,3.12
2018-12-05T14:08:22.009Z,3.12
2018-12-05T14:10:50.914Z,3.15
2018-12-05T14:13:19.854Z,3.18
2018-12-05T14:15:48.766Z,3.10
2018-12-05T14:18:17.691Z,3.10
2018-12-05T14:20:46.613Z,3.16
2018-12-05T14:23:15.585Z,3.15
2018-12-05T14:25:44.497Z,3.15
2018-12-05T14:28:13.406Z,3.05
2018-12-05T14:30:42.320Z,2.94
2018-12-05T14:33:11.252Z,2.85
2018-12-05T14:35:40.181Z,2.77
2018-12-05T14:38:09.083Z,2.78
2018-12-05T14:40:38.001Z,2.75
2018-12-05T14:43:06.918Z,2.63
2018-12-05T14:45:35.841Z,2.58
2018-12-05T14:48:04.760Z,2.61
2018-12-05T14:50:33.756Z,2.62
2018-12-05T14:53:06.426Z,2.60
2018-12-05T14:55:35.355Z,2.54
2018-12-05T14:58:04.265Z,2.59
2018-12-05T15:00:33.234Z,2.64
2018-12-05T15:03:02.164Z,2.66
2018-12-05T15:05:31.074Z,2.70
2018-12-05T15:08:00.166Z,2.66
2018-12-05T15:10:29.110Z,2.69
2018-12-05T15:12:58.063Z,2.67
2018-12-05T15:15:26.969Z,2.70
2018-12-05T15:17:55.900Z,2.72
2018-12-05T15:20:24.821Z,2.68
2018-12-05T15:22:53.749Z,2.65
2018-12-05T15:25:22.663Z,2.66
2018-12-05T15:27:51.673Z,2.70
2018-12-05T15:30:20.580Z,2.69
2018-12-05T15:32:49.530Z,2.70
2018-12-05T15:35:18.463Z,2.74
2018-12-05T15:37:47.387Z,2.71
2018-12-05T15:40:16.304Z,2.68
2018-12-05T15:42:45.250Z,2.65
2018-12-05T15:45:21.352Z,2.71
2018-12-05T15:47:45.111Z,2.72
2018-12-05T15:50:14.075Z,2.77
2018-12-05T15:52:43.026Z,2.77
2018-12-05T15:55:11.970Z,2.81
2018-12-05T15:57:40.898Z,2.81
2018-12-05T16:00:10.301Z,2.74
2018-12-05T16:02:39.299Z,2.69
2018-12-05T16:05:08.351Z,2.69
2018-12-05T16:07:37.360Z,2.66
2018-12-05T16:10:06.498Z,2.69
2018-12-05T16:12:35.431Z,2.67
2018-12-05T16:15:04.369Z,2.70
2018-12-05T16:17:33.291Z,2.68
2018-12-05T16:20:02.244Z,2.69
2018-12-05T16:22:31.294Z,2.73
2018-12-05T16:25:00.236Z,2.76
2018-12-05T16:27:29.163Z,2.77
2018-12-05T16:29:58.139Z,2.78
2018-12-05T16:32:27.081Z,2.77
2018-12-05T16:34:56.119Z,2.77
2018-12-05T16:37:25.053Z,2.78
2018-12-05T16:39:55.068Z,2.72
2018-12-05T16:42:23.981Z,2.70
2018-12-05T16:44:52.906Z,2.69
2018-12-05T16:47:21.805Z,2.68
2018-12-05T16:49:50.759Z,2.66
2018-12-05T16:52:19.667Z,2.66
2018-12-05T16:54:48.909Z,2.54
2018-12-05T16:57:17.884Z,2.67
2018-12-05T16:59:46.823Z,2.69
2018-12-05T17:02:15.740Z,2.70
2018-12-05T17:04:44.650Z,2.70
2018-12-05T17:07:13.636Z,2.67
2018-12-05T17:09:42.570Z,2.65
2018-12-05T17:12:11.479Z,2.46
2018-12-05T17:14:40.479Z,2.27
2018-12-05T17:17:09.429Z,2.28
2018-12-05T17:19:38.353Z,2.27
2018-12-05T17:22:07.283Z,2.26
2018-12-05T17:24:36.191Z,2.24
2018-12-05T17:27:05.116Z,2.21
2018-12-05T17:29:34.038Z,2.24
2018-12-05T17:32:33.607Z,2.29
2018-12-05T17:35:02.538Z,2.29
2018-12-05T17:37:31.449Z,2.28
2018-12-05T17:40:00.386Z,2.26
2018-12-05T17:42:29.318Z,2.29
2018-12-05T17:44:58.267Z,2.33
2018-12-05T17:47:27.262Z,2.34
2018-12-05T17:49:56.170Z,2.37
2018-12-05T17:52:25.086Z,2.41
2018-12-05T17:54:53.991Z,2.44
2018-12-05T17:57:22.915Z,2.43
2018-12-05T17:59:51.874Z,2.45
2018-12-05T18:02:20.804Z,2.46
2018-12-05T18:04:52.746Z,2.39
2018-12-05T18:07:21.676Z,2.41
2018-12-05T18:09:50.594Z,2.45
2018-12-05T18:12:19.500Z,2.51
2018-12-05T18:14:48.447Z,2.51
2018-12-05T18:17:17.397Z,2.50
2018-12-05T18:19:46.337Z,2.37
2018-12-05T18:22:15.269Z,2.36
2018-12-05T18:24:44.230Z,2.40
2018-12-05T18:27:13.174Z,2.43
2018-12-05T18:29:42.152Z,2.42
2018-12-05T18:32:11.192Z,2.39
2018-12-05T18:34:40.126Z,2.41
2018-12-05T18:37:09.068Z,2.46
2018-12-05T18:39:38.240Z,2.48
2018-12-05T18:42:07.199Z,2.51
2018-12-05T18:44:37.137Z,2.56
2018-12-05T18:47:20.462Z,2.55
2018-12-05T18:49:49.373Z,2.55
2018-12-05T18:52:18.324Z,2.57
2018-12-05T18:54:47.249Z,2.61
2018-12-05T18:57:16.222Z,2.59
2018-12-05T18:59:45.173Z,2.63
2018-12-05T19:02:14.103Z,2.62
2018-12-05T19:04:43.047Z,2.64
2018-12-05T19:07:11.984Z,2.65
2018-12-05T19:09:41.785Z,2.67
2018-12-05T19:12:10.701Z,2.71
2018-12-05T19:14:45.789Z,2.76
2018-12-05T19:17:14.860Z,2.77
2018-12-05T19:19:43.978Z,2.72
2018-12-05T19:22:12.897Z,2.75
2018-12-05T19:24:41.825Z,2.77
2018-12-05T19:27:10.744Z,2.74
2018-12-05T19:29:39.667Z,2.75
2018-12-05T19:32:08.583Z,2.74
2018-12-05T19:34:37.504Z,2.74
2018-12-05T19:37:06.433Z,2.70
2018-12-05T19:39:35.338Z,2.67
2018-12-05T19:42:04.263Z,2.71
2018-12-05T19:44:33.263Z,2.75
2018-12-05T19:47:02.183Z,2.78
2018-12-05T19:52:14.450Z,2.81
2018-12-05T19:54:43.369Z,2.79
2018-12-05T19:57:12.346Z,2.81
2018-12-05T19:59:41.270Z,2.83
2018-12-05T20:02:10.186Z,2.85
2018-12-05T20:04:39.108Z,2.79
2018-12-05T20:07:08.021Z,2.81
2018-12-05T20:09:36.955Z,2.83
2018-12-05T20:12:05.921Z,2.76
2018-12-05T20:14:34.834Z,2.66
2018-12-05T20:17:04.863Z,2.56
2018-12-05T20:19:33.862Z,2.49
2018-12-05T20:22:02.784Z,2.49
2018-12-05T20:24:31.730Z,2.40
2018-12-05T20:27:00.642Z,2.43
2018-12-05T20:29:29.606Z,2.42
2018-12-05T20:31:58.517Z,2.39
2018-12-05T20:34:27.442Z,2.38
2018-12-05T20:36:56.357Z,2.40
2018-12-05T20:39:26.065Z,2.40
2018-12-05T20:42:03.390Z,2.39
2018-12-05T20:44:32.272Z,2.41
2018-12-05T20:47:01.190Z,2.39
2018-12-05T20:49:30.108Z,2.37
2018-12-05T20:51:59.044Z,2.32
2018-12-05T20:54:27.960Z,2.32
2018-12-05T20:56:56.877Z,2.31
2018-12-05T20:59:25.861Z,2.28
2018-12-05T21:01:54.946Z,2.26
2018-12-05T21:04:23.923Z,2.30
2018-12-05T21:06:52.873Z,2.28
2018-12-05T21:09:21.790Z,2.29
2018-12-05T21:11:50.717Z,2.28
2018-12-05T21:14:19.647Z,2.33
2018-12-05T21:16:48.554Z,2.32
2018-12-05T21:19:17.477Z,2.39
2018-12-05T21:21:46.502Z,2.40
2018-12-05T21:24:15.419Z,2.37
2018-12-05T21:26:44.386Z,2.37
2018-12-05T21:29:13.315Z,2.37
2018-12-05T21:31:42.261Z,2.38
2018-12-05T21:34:11.174Z,2.39
2018-12-05T21:36:40.075Z,2.41
2018-12-05T21:39:09.817Z,2.38
2018-12-05T21:42:41.351Z,2.36
2018-12-05T21:45:10.268Z,2.29
2018-12-05T21:47:39.216Z,2.28
2018-12-05T21:50:08.123Z,2.32
2018-12-05T21:52:37.047Z,2.34
2018-12-05T21:55:06.748Z,2.38
2018-12-05T21:57:35.665Z,2.34
2018-12-05T22:00:05.666Z,2.33
2018-12-05T22:02:34.574Z,2.37
2018-12-05T22:05:03.473Z,2.34
2018-12-05T22:07:32.410Z,2.33
2018-12-05T22:10:01.331Z,2.28
2018-12-05T22:12:30.239Z,2.36
2018-12-05T22:14:59.165Z,2.39
2018-12-05T22:17:28.073Z,2.42
2018-12-05T22:19:57.013Z,2.32
2018-12-05T22:22:25.925Z,2.28
2018-12-05T22:24:54.834Z,2.28
2018-12-05T22:27:23.724Z,2.31
2018-12-05T22:29:52.629Z,2.27
2018-12-05T22:32:21.523Z,2.24
2018-12-05T22:34:50.456Z,2.29
2018-12-05T22:37:19.481Z,2.18
2018-12-05T22:39:48.398Z,2.16
2018-12-05T22:42:17.315Z,2.19
2018-12-05T22:44:46.215Z,2.15
2018-12-05T22:47:15.130Z,2.13
2018-12-05T22:49:44.050Z,2.16
2018-12-05T22:52:12.993Z,2.17
2018-12-05T22:54:41.873Z,2.16
2018-12-05T22:57:15.433Z,2.14
2018-12-05T22:59:44.333Z,2.13
2018-12-05T23:02:13.256Z,2.15
2018-12-05T23:04:42.149Z,2.13
2018-12-05T23:07:11.117Z,2.17
2018-12-05T23:09:40.073Z,2.22
2018-12-05T23:12:08.995Z,2.24
2018-12-05T23:14:37.907Z,2.27
2018-12-05T23:17:06.806Z,2.20
2018-12-05T23:19:35.726Z,2.21
2018-12-05T23:22:04.634Z,2.16
2018-12-05T23:24:33.536Z,2.22
2018-12-05T23:27:02.425Z,2.19
2018-12-05T23:29:31.345Z,2.12
2018-12-05T23:32:00.250Z,2.14
2018-12-05T23:34:29.182Z,2.18
2018-12-05T23:36:58.102Z,2.14
2018-12-05T23:39:27.070Z,2.15
2018-12-05T23:41:55.965Z,2.20
2018-12-05T23:44:41.109Z,2.23
2018-12-05T23:47:10.019Z,2.28
2018-12-05T23:49:38.930Z,2.33
2018-12-05T23:52:07.842Z,2.24
2018-12-05T23:54:36.757Z,2.20
2018-12-05T23:57:05.661Z,2.19
2018-12-05T23:59:34.681Z,2.23
